EBCV

Chièvres Air Base Airport

Chièvres, Belgium
METAR EBCV 140333Z AUTO 05004KT 4900 NCD M03/M04 Q1020 GRN
Observed Flight Rules
Dec-14 @ 03:33 UTC (48 minutes ago) Marginal Visual Flight Rules
Wind Visibility Clouds
50° at 4 knots 4,892 meters
  • Clear skies
Temperatures Readings
Current -3°C / 27°F
Dewpoint -4°C / 25°F
Humidity 93%
Altimeter 30.12" Hg
Pressure 1020 hPa
Elevation 63
METAR EBCV 140333Z AUTO 05004KT 4900 NCD M03/M04 Q1020 GRN
Observed Flight Rules
Dec-14 @ 03:33 UTC
(48 minutes ago)
MVFR
Wind Visibility
50° at 4 knots 4,892 meters
Clouds
  • Clear skies
Temperature Dewpoint
-3°C / 27°F -4°C / 25°F
Humidity Altimeter Pressure
93% 30.12" Hg 1020 hPa